createdAt,value
2022-08-10T00:01:35.424Z,14.80
2022-08-10T00:04:02.929Z,14.70
2022-08-10T00:06:30.376Z,14.70
2022-08-10T00:08:58.109Z,14.70
2022-08-10T00:11:26.324Z,14.60
2022-08-10T00:13:53.734Z,14.60
2022-08-10T00:16:21.106Z,14.60
2022-08-10T00:18:48.653Z,14.60
2022-08-10T00:21:16.008Z,14.60
2022-08-10T00:23:43.313Z,14.50
2022-08-10T00:26:11.113Z,14.50
2022-08-10T00:28:39.296Z,14.50
2022-08-10T00:31:07.347Z,14.50
2022-08-10T00:33:34.707Z,14.50
2022-08-10T00:36:02.051Z,14.40
2022-08-10T00:38:29.332Z,14.40
2022-08-10T00:40:56.966Z,14.40
2022-08-10T00:43:25.522Z,14.30
2022-08-10T00:45:59.143Z,14.20
2022-08-10T00:48:30.093Z,14.10
2022-08-10T00:50:59.896Z,14.00
2022-08-10T00:53:28.784Z,13.90
2022-08-10T00:56:41.624Z,13.90
2022-08-10T00:58:45.473Z,13.90
2022-08-10T01:02:07.159Z,13.90
2022-08-10T01:04:54.365Z,13.90
2022-08-10T01:07:11.745Z,13.80
2022-08-10T01:09:57.531Z,13.80
2022-08-10T01:12:38.611Z,13.80
2022-08-10T01:15:40.418Z,13.80
2022-08-10T01:18:29.277Z,13.80
2022-08-10T01:21:38.237Z,13.80
2022-08-10T01:24:30.137Z,13.70
2022-08-10T01:27:08.245Z,13.70
2022-08-10T01:29:53.667Z,13.70
2022-08-10T01:32:38.257Z,13.70
2022-08-10T01:35:29.511Z,13.70
2022-08-10T01:38:22.367Z,13.70
2022-08-10T01:40:57.189Z,13.70
2022-08-10T01:43:26.786Z,13.70
2022-08-10T01:45:58.550Z,13.60
2022-08-10T01:48:33.243Z,13.60
2022-08-10T01:51:25.525Z,13.50
2022-08-10T01:54:03.281Z,13.50
2022-08-10T01:56:35.133Z,13.40
2022-08-10T01:59:07.988Z,13.40
2022-08-10T02:01:50.582Z,13.40
2022-08-10T02:04:19.850Z,13.30
2022-08-10T02:06:51.552Z,13.30
2022-08-10T02:09:33.521Z,13.30
2022-08-10T02:12:08.947Z,13.20
2022-08-10T02:14:45.682Z,13.20
2022-08-10T02:17:57.900Z,13.20
2022-08-10T02:20:15.760Z,13.10
2022-08-10T02:22:45.426Z,13.10
2022-08-10T02:25:39.724Z,13.10
2022-08-10T02:28:05.438Z,13.00
2022-08-10T02:30:34.169Z,13.00
2022-08-10T02:33:02.521Z,13.00
2022-08-10T02:35:38.425Z,12.90
2022-08-10T02:38:59.359Z,12.90
2022-08-10T02:45:14.340Z,12.90
2022-08-10T02:45:20.244Z,12.80
2022-08-10T02:47:51.511Z,12.90
2022-08-10T02:50:33.561Z,12.80
2022-08-10T02:53:54.566Z,12.80
2022-08-10T02:56:04.488Z,12.80
2022-08-10T02:59:07.751Z,12.70
2022-08-10T03:01:42.091Z,12.70
2022-08-10T03:04:55.742Z,12.60
2022-08-10T03:07:13.566Z,12.60
2022-08-10T03:09:41.951Z,12.50
2022-08-10T03:12:37.651Z,12.50
2022-08-10T03:15:01.865Z,12.40
2022-08-10T03:17:30.248Z,12.40
2022-08-10T03:20:35.902Z,12.40
2022-08-10T03:22:51.827Z,12.40
2022-08-10T03:25:22.617Z,12.40
2022-08-10T03:27:51.840Z,12.50
2022-08-10T03:30:29.512Z,12.50
2022-08-10T03:33:03.016Z,12.40
2022-08-10T03:35:30.811Z,12.30
2022-08-10T03:37:59.997Z,12.20
2022-08-10T03:40:35.860Z,12.20
2022-08-10T03:43:21.121Z,12.20
2022-08-10T03:45:56.652Z,12.20
2022-08-10T03:48:44.797Z,12.10
2022-08-10T03:51:17.981Z,12.10
2022-08-10T03:54:06.008Z,12.10
2022-08-10T03:56:35.025Z,12.20
2022-08-10T03:59:02.610Z,12.20
2022-08-10T04:02:45.981Z,12.20
2022-08-10T04:04:24.100Z,12.20
2022-08-10T04:06:58.959Z,12.20
2022-08-10T04:09:55.496Z,12.30
2022-08-10T04:12:21.160Z,12.40
2022-08-10T04:14:51.943Z,12.50
2022-08-10T04:18:04.298Z,12.50
2022-08-10T04:20:43.561Z,12.50
2022-08-10T04:23:19.212Z,12.60
2022-08-10T04:25:46.946Z,12.60
2022-08-10T04:28:14.897Z,12.70
2022-08-10T04:30:43.676Z,12.80
2022-08-10T04:33:14.258Z,12.80
2022-08-10T04:35:43.544Z,12.90
2022-08-10T04:38:13.137Z,13.00
2022-08-10T04:40:41.233Z,13.10
2022-08-10T04:43:12.749Z,13.10
2022-08-10T04:45:48.460Z,13.10
2022-08-10T04:48:40.805Z,13.20
2022-08-10T04:51:18.002Z,13.30
2022-08-10T04:54:04.905Z,13.50
2022-08-10T04:56:38.771Z,13.60
2022-08-10T04:59:08.147Z,13.70
2022-08-10T05:02:22.776Z,13.80
2022-08-10T05:04:36.469Z,14.00
2022-08-10T05:07:17.036Z,14.10
2022-08-10T05:10:03.125Z,14.30
2022-08-10T05:12:36.200Z,14.40
2022-08-10T05:15:10.123Z,14.70
2022-08-10T05:17:39.065Z,14.90
2022-08-10T05:20:09.232Z,15.20
2022-08-10T05:22:47.493Z,15.40
2022-08-10T05:25:17.474Z,15.50
2022-08-10T05:27:45.694Z,15.70
2022-08-10T05:30:18.787Z,15.90
2022-08-10T05:32:56.189Z,16.20
2022-08-10T05:35:27.717Z,16.40
2022-08-10T05:38:12.089Z,16.60
2022-08-10T05:40:47.105Z,16.80
2022-08-10T05:43:18.443Z,17.00
2022-08-10T05:46:19.567Z,17.20
2022-08-10T05:48:54.137Z,17.40
2022-08-10T05:51:23.403Z,17.80
2022-08-10T05:54:03.408Z,17.90
2022-08-10T05:56:53.265Z,18.10
2022-08-10T06:00:33.687Z,18.20
2022-08-10T06:02:44.289Z,18.20
2022-08-10T06:05:18.916Z,18.60
2022-08-10T06:08:00.858Z,19.00
2022-08-10T06:10:32.241Z,19.50
2022-08-10T06:13:27.160Z,19.90
2022-08-10T06:16:00.500Z,20.10
2022-08-10T06:18:28.319Z,20.30
2022-08-10T06:20:57.862Z,20.50
2022-08-10T06:23:28.606Z,20.70
2022-08-10T06:26:12.167Z,20.90
2022-08-10T06:29:02.824Z,21.00
2022-08-10T06:31:46.942Z,21.30
2022-08-10T06:34:22.891Z,21.50
2022-08-10T06:36:53.265Z,21.60
2022-08-10T06:39:33.434Z,21.80
2022-08-10T06:42:16.601Z,21.90
2022-08-10T06:45:02.091Z,22.00
2022-08-10T06:47:56.486Z,22.20
2022-08-10T06:51:04.388Z,22.30
2022-08-10T06:53:52.033Z,22.40
2022-08-10T06:56:36.067Z,22.50
2022-08-10T06:59:22.030Z,22.40
2022-08-10T07:02:06.889Z,22.80
2022-08-10T07:05:01.482Z,22.90
2022-08-10T07:07:33.624Z,22.90
2022-08-10T07:10:01.933Z,23.10
2022-08-10T07:12:32.172Z,23.50
2022-08-10T07:15:00.814Z,23.60
2022-08-10T07:17:34.797Z,23.90
2022-08-10T07:20:07.406Z,24.00
2022-08-10T07:23:27.285Z,23.80
2022-08-10T07:25:28.893Z,23.90
2022-08-10T07:28:02.181Z,24.20
2022-08-10T07:30:32.458Z,24.40
2022-08-10T07:33:01.882Z,24.80
2022-08-10T07:35:41.874Z,25.10
2022-08-10T07:38:25.676Z,25.30
2022-08-10T07:40:54.249Z,25.10
2022-08-10T07:43:25.746Z,24.90
2022-08-10T07:45:54.002Z,25.20
2022-08-10T07:48:26.964Z,25.30
2022-08-10T07:51:02.234Z,25.50
2022-08-10T07:53:34.709Z,25.60
2022-08-10T07:56:20.909Z,25.60
2022-08-10T07:58:57.032Z,25.40
2022-08-10T08:01:29.833Z,25.80
2022-08-10T08:04:10.634Z,25.90
2022-08-10T08:06:41.396Z,26.10
2022-08-10T08:09:09.606Z,26.50
2022-08-10T08:11:40.293Z,26.80
2022-08-10T08:14:09.160Z,26.80
2022-08-10T08:16:40.746Z,26.90
2022-08-10T08:19:28.569Z,26.70
2022-08-10T08:24:04.927Z,27.00
2022-08-10T08:24:48.431Z,27.30
2022-08-10T08:27:20.811Z,27.70
2022-08-10T08:29:50.155Z,27.90
2022-08-10T08:32:22.914Z,28.00
2022-08-10T08:34:58.035Z,27.90
2022-08-10T08:38:31.140Z,28.00
2022-08-10T08:40:22.189Z,28.30
2022-08-10T08:43:07.940Z,28.70
2022-08-10T08:46:12.768Z,28.90
2022-08-10T08:49:06.781Z,29.10
2022-08-10T08:52:11.376Z,29.30
2022-08-10T08:54:51.838Z,29.50
2022-08-10T08:57:49.495Z,29.70
2022-08-10T09:00:30.433Z,29.90
2022-08-10T09:03:26.252Z,30.00
2022-08-10T09:06:25.712Z,30.10
2022-08-10T09:09:01.804Z,30.20
2022-08-10T09:11:54.515Z,30.30
2022-08-10T09:14:39.242Z,30.40
2022-08-10T09:17:20.820Z,30.70
2022-08-10T09:20:19.461Z,30.30
2022-08-10T09:23:20.705Z,30.10
2022-08-10T09:26:08.076Z,30.10
2022-08-10T09:28:40.906Z,30.00
2022-08-10T09:31:22.783Z,30.10
2022-08-10T09:36:21.929Z,30.20
2022-08-10T09:36:56.614Z,30.00
2022-08-10T09:40:56.253Z,29.40
2022-08-10T09:43:25.224Z,29.00
2022-08-10T09:46:17.053Z,28.60
2022-08-10T09:49:08.498Z,28.30
2022-08-10T09:51:47.857Z,28.30
2022-08-10T09:54:53.830Z,28.70
2022-08-10T09:57:44.352Z,29.40
2022-08-10T10:00:18.090Z,29.90
2022-08-10T10:03:02.005Z,30.20
2022-08-10T10:05:52.668Z,30.60
2022-08-10T10:08:28.724Z,30.90
2022-08-10T10:11:02.036Z,31.10
2022-08-10T10:14:11.825Z,31.10
2022-08-10T10:17:03.853Z,31.10
2022-08-10T10:19:55.261Z,31.30
2022-08-10T10:22:47.095Z,31.10
2022-08-10T10:25:50.061Z,31.70
2022-08-10T10:29:07.313Z,32.10
2022-08-10T10:31:31.919Z,32.50
2022-08-10T10:34:18.311Z,32.60
2022-08-10T10:36:47.568Z,32.80
2022-08-10T10:39:20.679Z,32.40
2022-08-10T10:42:28.943Z,32.50
2022-08-10T10:45:16.178Z,32.00
2022-08-10T10:48:23.857Z,31.70
2022-08-10T10:51:10.741Z,32.10
2022-08-10T10:53:38.375Z,32.60
2022-08-10T10:56:16.993Z,32.80
2022-08-10T10:59:02.948Z,32.80
2022-08-10T11:02:16.977Z,32.40
2022-08-10T11:04:59.294Z,32.40
2022-08-10T11:07:46.617Z,32.20
2022-08-10T11:10:31.620Z,31.70
2022-08-10T11:14:26.220Z,31.30
2022-08-10T11:16:59.944Z,31.30
2022-08-10T11:20:03.467Z,32.00
2022-08-10T11:22:42.973Z,32.90
2022-08-10T11:25:34.349Z,33.20
2022-08-10T11:28:17.085Z,32.70
2022-08-10T11:31:02.048Z,32.00
2022-08-10T11:34:03.986Z,31.30
2022-08-10T11:36:50.191Z,30.50
2022-08-10T11:39:48.755Z,30.40
2022-08-10T11:42:36.056Z,31.10
2022-08-10T11:45:10.435Z,31.90
2022-08-10T11:47:51.115Z,32.80
2022-08-10T11:50:51.567Z,33.30
2022-08-10T11:53:40.079Z,33.20
2022-08-10T11:56:11.173Z,32.70
2022-08-10T11:59:01.903Z,32.20
2022-08-10T12:01:47.515Z,31.40
2022-08-10T12:04:16.870Z,30.80
2022-08-10T12:06:55.707Z,30.30
2022-08-10T12:10:09.835Z,29.90
2022-08-10T12:12:16.187Z,29.60
2022-08-10T12:14:57.843Z,29.70
2022-08-10T12:17:27.518Z,30.10
2022-08-10T12:19:59.759Z,30.60
2022-08-10T12:22:49.211Z,30.70
2022-08-10T12:25:57.376Z,30.80
2022-08-10T12:28:49.786Z,31.00
2022-08-10T12:31:26.982Z,31.10
2022-08-10T12:34:17.657Z,31.10
2022-08-10T12:37:14.639Z,31.00
2022-08-10T12:39:57.306Z,30.90
2022-08-10T12:42:40.544Z,30.60
2022-08-10T12:45:28.133Z,30.20
2022-08-10T12:48:11.814Z,29.70
2022-08-10T12:50:53.629Z,29.50
2022-08-10T12:53:44.898Z,29.40
2022-08-10T12:56:19.662Z,29.40
2022-08-10T12:58:59.221Z,29.60
2022-08-10T13:02:09.653Z,29.70
2022-08-10T13:04:40.602Z,29.60
2022-08-10T13:07:09.543Z,29.60
2022-08-10T13:09:56.362Z,29.70
2022-08-10T13:12:37.099Z,29.80
2022-08-10T13:15:45.803Z,29.70
2022-08-10T13:18:25.648Z,29.70
2022-08-10T13:20:56.458Z,29.80
2022-08-10T13:23:29.693Z,29.90
2022-08-10T13:26:01.418Z,29.90
2022-08-10T13:28:53.738Z,29.70
2022-08-10T13:32:09.061Z,29.30
2022-08-10T13:34:41.190Z,29.10
2022-08-10T13:37:16.196Z,28.80
2022-08-10T13:39:59.805Z,28.50
2022-08-10T13:42:33.116Z,28.50
2022-08-10T13:45:08.705Z,28.60
2022-08-10T13:47:49.404Z,28.90
2022-08-10T13:50:33.387Z,29.00
2022-08-10T13:53:10.059Z,29.10
2022-08-10T13:55:59.967Z,29.10
2022-08-10T13:58:37.331Z,29.10
2022-08-10T14:01:17.776Z,29.10
2022-08-10T14:03:46.148Z,28.80
2022-08-10T14:06:16.394Z,28.60
2022-08-10T14:08:56.762Z,28.30
2022-08-10T14:11:26.202Z,28.10
2022-08-10T14:13:57.942Z,27.90
2022-08-10T14:16:25.933Z,27.70
2022-08-10T14:18:57.688Z,27.60
2022-08-10T14:21:25.374Z,27.60
2022-08-10T14:23:53.902Z,27.90
2022-08-10T14:26:32.564Z,28.20
2022-08-10T14:29:08.436Z,28.50
2022-08-10T14:31:39.723Z,28.60
2022-08-10T14:34:50.602Z,28.40
2022-08-10T14:37:38.117Z,28.10
2022-08-10T14:40:16.692Z,27.70
2022-08-10T14:42:54.348Z,27.50
2022-08-10T14:45:35.037Z,27.20
2022-08-10T14:48:43.141Z,27.00
2022-08-10T14:51:15.810Z,26.90
2022-08-10T14:53:44.707Z,26.80
2022-08-10T14:56:14.915Z,26.90
2022-08-10T14:58:58.838Z,27.10
2022-08-10T15:01:27.219Z,27.20
2022-08-10T15:04:18.017Z,27.40
2022-08-10T15:07:01.405Z,27.50
2022-08-10T15:10:01.612Z,27.60
2022-08-10T15:12:34.579Z,27.50
2022-08-10T15:15:05.904Z,27.30
2022-08-10T15:17:42.371Z,27.10
2022-08-10T15:20:20.708Z,26.90
2022-08-10T15:22:53.792Z,26.70
2022-08-10T15:25:26.346Z,26.60
2022-08-10T15:28:06.605Z,26.50
2022-08-10T15:30:56.573Z,26.40
2022-08-10T15:34:00.263Z,26.30
2022-08-10T15:37:01.915Z,26.30
2022-08-10T15:40:26.002Z,26.20
2022-08-10T15:42:49.398Z,26.30
2022-08-10T15:45:18.158Z,26.30
2022-08-10T15:48:00.512Z,26.40
2022-08-10T15:50:57.006Z,26.50
2022-08-10T15:53:49.499Z,26.50
2022-08-10T15:56:31.448Z,26.50
2022-08-10T15:59:16.565Z,26.50
2022-08-10T16:02:13.373Z,26.50
2022-08-10T16:04:54.897Z,26.50
2022-08-10T16:07:46.090Z,26.40
2022-08-10T16:10:26.706Z,26.40
2022-08-10T16:13:01.144Z,26.40
2022-08-10T16:15:31.111Z,26.30
2022-08-10T16:18:04.889Z,26.30
2022-08-10T16:20:53.359Z,26.20
2022-08-10T16:24:11.424Z,26.10
2022-08-10T16:26:46.552Z,26.10
2022-08-10T16:29:18.926Z,26.00
2022-08-10T16:32:04.841Z,26.00
2022-08-10T16:34:34.975Z,25.90
2022-08-10T16:37:08.078Z,25.90
2022-08-10T16:39:58.036Z,25.80
2022-08-10T16:42:36.321Z,25.80
2022-08-10T16:45:06.301Z,25.70
2022-08-10T16:47:45.181Z,25.60
2022-08-10T16:50:25.061Z,25.60
2022-08-10T16:52:53.992Z,25.50
2022-08-10T16:55:48.504Z,25.50
2022-08-10T16:58:15.940Z,25.40
2022-08-10T17:00:45.842Z,25.40
2022-08-10T17:04:04.652Z,25.30
2022-08-10T17:06:11.029Z,25.30
2022-08-10T17:08:54.524Z,25.20
2022-08-10T17:11:27.936Z,25.20
2022-08-10T17:14:04.267Z,25.10
2022-08-10T17:16:41.936Z,25.00
2022-08-10T17:19:15.209Z,25.00
2022-08-10T17:21:51.493Z,24.90
2022-08-10T17:24:33.904Z,24.80
2022-08-10T17:28:05.634Z,24.70
2022-08-10T17:30:02.776Z,24.70
2022-08-10T17:33:07.104Z,24.60
2022-08-10T17:35:37.198Z,24.50
2022-08-10T17:38:21.691Z,24.40
2022-08-10T17:41:04.492Z,24.40
2022-08-10T17:43:46.277Z,24.30
2022-08-10T17:46:26.996Z,24.20
2022-08-10T17:48:55.827Z,24.10
2022-08-10T17:51:28.698Z,24.10
2022-08-10T17:54:05.144Z,24.00
2022-08-10T17:56:34.854Z,24.00
2022-08-10T17:59:16.758Z,23.90
2022-08-10T18:01:58.619Z,23.80
2022-08-10T18:04:37.136Z,23.70
2022-08-10T18:07:11.917Z,23.60
2022-08-10T18:09:42.644Z,23.60
2022-08-10T18:12:37.936Z,23.50
2022-08-10T18:15:12.485Z,23.30
2022-08-10T18:17:46.359Z,23.20
2022-08-10T18:20:16.086Z,23.10
2022-08-10T18:22:50.674Z,23.00
2022-08-10T18:25:25.774Z,22.90
2022-08-10T18:28:04.767Z,22.80
2022-08-10T18:30:45.303Z,22.70
2022-08-10T18:33:15.854Z,22.60
2022-08-10T18:35:46.048Z,22.50
2022-08-10T18:38:15.633Z,22.40
2022-08-10T18:40:51.481Z,22.40
2022-08-10T18:44:05.903Z,22.30
2022-08-10T18:46:18.150Z,22.20
2022-08-10T18:49:28.654Z,22.10
2022-08-10T18:51:59.226Z,22.00
2022-08-10T18:54:43.882Z,21.90
2022-08-10T18:57:36.406Z,21.80
2022-08-10T19:00:13.438Z,21.70
2022-08-10T19:03:14.187Z,21.50
2022-08-10T19:06:24.774Z,21.40
2022-08-10T19:09:46.040Z,21.30
2022-08-10T19:12:43.326Z,21.20
2022-08-10T19:15:29.421Z,21.00
2022-08-10T19:18:37.815Z,20.90
2022-08-10T19:21:30.128Z,20.80
2022-08-10T19:24:10.359Z,20.70
2022-08-10T19:26:51.881Z,20.60
2022-08-10T19:30:09.331Z,20.50
2022-08-10T19:32:22.002Z,20.40
2022-08-10T19:35:07.536Z,20.30
2022-08-10T19:38:00.779Z,20.20
2022-08-10T19:40:55.898Z,20.00
2022-08-10T19:44:00.004Z,19.90
2022-08-10T19:46:44.078Z,19.80
2022-08-10T19:49:29.910Z,19.70
2022-08-10T19:52:10.199Z,19.60
2022-08-10T19:54:46.252Z,19.50
2022-08-10T19:57:29.276Z,19.50
2022-08-10T20:00:19.018Z,19.40
2022-08-10T20:02:54.062Z,19.40
2022-08-10T20:05:34.623Z,19.30
2022-08-10T20:08:20.231Z,19.20
2022-08-10T20:11:46.308Z,19.10
2022-08-10T20:14:23.220Z,19.00
2022-08-10T20:16:55.965Z,19.00
2022-08-10T20:19:53.170Z,18.90
2022-08-10T20:22:29.186Z,18.80
2022-08-10T20:25:17.595Z,18.70
2022-08-10T20:28:16.453Z,18.60
2022-08-10T20:30:59.983Z,18.60
2022-08-10T20:33:39.086Z,18.50
2022-08-10T20:36:41.566Z,18.50
2022-08-10T20:39:42.435Z,18.30
2022-08-10T20:42:34.366Z,18.30
2022-08-10T20:45:11.246Z,18.20
2022-08-10T20:47:53.831Z,18.10
2022-08-10T20:50:42.880Z,18.00
2022-08-10T20:53:14.260Z,17.90
2022-08-10T20:56:09.246Z,17.80
2022-08-10T20:59:17.663Z,17.80
2022-08-10T21:02:28.227Z,17.70
2022-08-10T21:05:09.918Z,17.60
2022-08-10T21:08:05.922Z,17.60
2022-08-10T21:10:59.049Z,17.60
2022-08-10T21:13:54.595Z,17.50
2022-08-10T21:16:22.010Z,17.50
2022-08-10T21:19:14.197Z,17.40
2022-08-10T21:22:02.615Z,17.40
2022-08-10T21:24:52.251Z,17.30
2022-08-10T21:27:59.512Z,17.30
2022-08-10T21:31:12.285Z,17.20
2022-08-10T21:33:59.010Z,17.20
2022-08-10T21:36:37.544Z,17.10
2022-08-10T21:39:41.925Z,17.00
2022-08-10T21:42:47.440Z,17.00
2022-08-10T21:45:58.815Z,16.90
2022-08-10T21:48:58.965Z,16.80
2022-08-10T21:52:09.924Z,16.70
2022-08-10T21:55:03.075Z,16.60
2022-08-10T21:58:06.284Z,16.60
2022-08-10T22:04:01.228Z,16.40
2022-08-10T22:06:52.492Z,16.30
2022-08-10T22:09:46.268Z,16.30
2022-08-10T22:12:34.456Z,16.30
2022-08-10T22:16:05.335Z,16.20
2022-08-10T22:18:53.852Z,16.10
2022-08-10T22:22:27.077Z,15.90
2022-08-10T22:25:33.511Z,15.90
2022-08-10T22:28:20.943Z,15.90
2022-08-10T22:31:31.480Z,16.00
2022-08-10T22:34:38.447Z,16.00
2022-08-10T22:38:11.754Z,16.00
2022-08-10T22:41:03.947Z,16.10
2022-08-10T22:43:52.869Z,16.00
2022-08-10T22:46:44.287Z,16.00
2022-08-10T22:49:11.652Z,15.90
2022-08-10T22:51:52.867Z,15.70
2022-08-10T22:55:08.105Z,15.60
2022-08-10T22:57:54.721Z,15.50
2022-08-10T23:00:31.408Z,15.40
2022-08-10T23:03:22.212Z,15.50
2022-08-10T23:05:57.979Z,15.50
2022-08-10T23:08:58.584Z,15.50
2022-08-10T23:11:33.348Z,15.50
2022-08-10T23:14:04.735Z,15.50
2022-08-10T23:17:01.172Z,15.50
2022-08-10T23:19:33.285Z,15.50
2022-08-10T23:22:07.919Z,15.50
2022-08-10T23:24:52.980Z,15.60
2022-08-10T23:27:39.666Z,15.60
2022-08-10T23:30:17.079Z,15.50
2022-08-10T23:32:50.907Z,15.50
2022-08-10T23:36:05.614Z,15.50
2022-08-10T23:38:09.807Z,15.40
2022-08-10T23:40:37.569Z,15.30
2022-08-10T23:43:06.762Z,15.30
2022-08-10T23:45:52.491Z,15.30
2022-08-10T23:48:25.255Z,15.30
2022-08-10T23:50:58.444Z,15.40
2022-08-10T23:53:45.047Z,15.50
2022-08-10T23:56:20.263Z,15.50
2022-08-10T23:58:55.081Z,15.40
